createdAt,value
2023-03-11T00:00:48.864Z,8.70
2023-03-11T00:03:18.068Z,8.60
2023-03-11T00:05:46.610Z,8.90
2023-03-11T00:08:19.327Z,8.20
2023-03-11T00:10:48.234Z,8.80
2023-03-11T00:13:18.366Z,8.80
2023-03-11T00:15:48.606Z,8.50
2023-03-11T00:18:17.141Z,8.70
2023-03-11T00:20:47.312Z,8.50
2023-03-11T00:23:15.942Z,8.60
2023-03-11T00:25:46.324Z,8.70
2023-03-11T00:28:15.717Z,8.50
2023-03-11T00:30:44.868Z,9.00
2023-03-11T00:33:15.386Z,8.40
2023-03-11T00:35:43.965Z,9.00
2023-03-11T00:38:15.383Z,8.50
2023-03-11T00:40:44.484Z,8.60
2023-03-11T00:43:12.846Z,8.70
2023-03-11T00:45:41.061Z,8.60
2023-03-11T00:48:09.296Z,8.50
2023-03-11T00:50:38.338Z,8.00
2023-03-11T00:53:06.626Z,8.40
2023-03-11T00:55:35.142Z,8.40
2023-03-11T00:58:06.791Z,8.30
2023-03-11T01:00:48.286Z,8.80
2023-03-11T01:03:16.624Z,9.00
2023-03-11T01:05:48.462Z,8.60
2023-03-11T01:08:17.001Z,8.40
2023-03-11T01:10:45.065Z,8.50
2023-03-11T01:13:13.698Z,8.30
2023-03-11T01:15:42.150Z,8.90
2023-03-11T01:18:10.489Z,8.50
2023-03-11T01:20:38.829Z,9.00
2023-03-11T01:23:07.459Z,9.50
2023-03-11T01:25:35.793Z,9.20
2023-03-11T01:28:04.445Z,8.60
2023-03-11T01:30:32.841Z,8.70
2023-03-11T01:33:01.899Z,8.90
2023-03-11T01:35:30.755Z,8.90
2023-03-11T01:38:01.328Z,8.50
2023-03-11T01:40:38.180Z,7.80
2023-03-11T01:43:37.469Z,8.80
2023-03-11T01:46:09.655Z,8.30
2023-03-11T01:48:40.335Z,8.40
2023-03-11T01:51:08.635Z,8.40
2023-03-11T01:53:39.905Z,8.90
2023-03-11T01:56:08.349Z,8.60
2023-03-11T01:58:38.169Z,7.80
2023-03-11T02:01:06.239Z,8.60
2023-03-11T02:03:39.010Z,8.80
2023-03-11T02:06:13.113Z,8.60
2023-03-11T02:08:41.775Z,8.10
2023-03-11T02:11:12.600Z,8.70
2023-03-11T02:13:41.034Z,8.40
2023-03-11T02:16:09.469Z,8.30
2023-03-11T02:18:37.783Z,8.90
2023-03-11T02:21:25.120Z,9.00
2023-03-11T02:23:58.230Z,8.40
2023-03-11T02:26:56.836Z,7.90
2023-03-11T02:29:27.362Z,8.00
2023-03-11T02:31:59.142Z,8.70
2023-03-11T02:34:29.641Z,8.30
2023-03-11T02:36:59.312Z,8.70
2023-03-11T02:39:39.058Z,8.50
2023-03-11T02:42:15.483Z,9.20
2023-03-11T02:44:45.850Z,8.60
2023-03-11T02:47:13.936Z,8.40
2023-03-11T02:49:42.771Z,8.10
2023-03-11T02:52:13.011Z,7.90
2023-03-11T02:54:41.555Z,8.60
2023-03-11T02:57:09.704Z,8.00
2023-03-11T02:59:40.407Z,7.40
2023-03-11T03:02:09.244Z,8.00
2023-03-11T03:04:39.117Z,8.90
2023-03-11T03:07:07.925Z,8.50
2023-03-11T03:09:36.973Z,7.90
2023-03-11T03:12:05.503Z,8.90
2023-03-11T03:14:34.848Z,7.60
2023-03-11T03:17:03.730Z,8.20
2023-03-11T03:19:32.346Z,8.70
2023-03-11T03:22:04.064Z,8.30
2023-03-11T03:24:32.778Z,8.50
2023-03-11T03:27:00.910Z,8.50
2023-03-11T03:29:29.807Z,7.60
2023-03-11T03:31:58.287Z,8.00
2023-03-11T03:34:26.600Z,8.30
2023-03-11T03:36:54.876Z,8.10
2023-03-11T03:39:23.102Z,8.10
2023-03-11T03:41:51.591Z,7.90
2023-03-11T03:44:19.867Z,8.20
2023-03-11T03:46:48.846Z,8.60
2023-03-11T03:49:16.987Z,8.50
2023-03-11T03:51:46.371Z,8.00
2023-03-11T03:54:22.085Z,8.20
2023-03-11T03:56:50.970Z,8.40
2023-03-11T03:59:19.865Z,8.50
2023-03-11T04:01:53.713Z,7.90
2023-03-11T04:04:23.051Z,8.90
2023-03-11T04:06:51.855Z,8.90
2023-03-11T04:09:23.151Z,9.20
2023-03-11T04:11:51.549Z,8.60
2023-03-11T04:14:20.218Z,8.60
2023-03-11T04:16:57.907Z,9.40
2023-03-11T04:19:26.230Z,9.10
2023-03-11T04:21:54.323Z,9.20
2023-03-11T04:24:25.371Z,9.30
2023-03-11T04:26:54.247Z,9.50
2023-03-11T04:29:22.629Z,10.10
2023-03-11T04:31:56.005Z,10.00
2023-03-11T04:34:35.928Z,9.70
2023-03-11T04:37:04.726Z,9.80
2023-03-11T04:39:34.189Z,10.80
2023-03-11T04:42:04.162Z,10.50
2023-03-11T04:44:35.546Z,10.30
2023-03-11T04:47:04.129Z,9.70
2023-03-11T04:49:32.776Z,10.30
2023-03-11T04:52:01.147Z,10.30
2023-03-11T04:54:29.560Z,10.30
2023-03-11T04:57:30.661Z,9.20
2023-03-11T05:00:13.505Z,10.80
2023-03-11T05:02:43.327Z,10.70
2023-03-11T05:05:12.689Z,10.80
2023-03-11T05:07:43.636Z,10.10
2023-03-11T05:10:12.500Z,11.00
2023-03-11T05:12:40.912Z,11.80
2023-03-11T05:15:10.526Z,10.50
2023-03-11T05:17:39.366Z,10.90
2023-03-11T05:20:09.772Z,11.20
2023-03-11T05:22:38.683Z,11.70
2023-03-11T05:25:07.350Z,10.80
2023-03-11T05:27:36.600Z,10.90
2023-03-11T05:30:06.768Z,10.90
2023-03-11T05:32:36.142Z,12.10
2023-03-11T05:35:05.124Z,11.80
2023-03-11T05:37:34.048Z,10.90
2023-03-11T05:40:07.922Z,10.90
2023-03-11T05:42:38.166Z,12.20
2023-03-11T05:45:06.669Z,11.60
2023-03-11T05:47:36.347Z,12.20
2023-03-11T05:50:05.456Z,12.10
2023-03-11T05:52:34.784Z,12.50
2023-03-11T05:55:03.450Z,12.40
2023-03-11T05:57:36.780Z,12.80
2023-03-11T06:00:07.214Z,12.50
2023-03-11T06:05:06.157Z,13.00
2023-03-11T06:07:37.231Z,12.60
2023-03-11T06:10:06.811Z,12.30
2023-03-11T06:12:41.881Z,11.90
2023-03-11T06:15:29.467Z,12.10
2023-03-11T06:17:57.806Z,12.50
2023-03-11T06:20:26.866Z,12.50
2023-03-11T06:22:56.307Z,11.70
2023-03-11T06:25:25.077Z,12.00
2023-03-11T06:27:54.230Z,13.20
2023-03-11T06:30:24.312Z,12.60
2023-03-11T06:33:15.252Z,11.80
2023-03-11T06:35:44.178Z,13.10
2023-03-11T06:38:13.599Z,13.90
2023-03-11T06:40:42.133Z,13.40
2023-03-11T06:43:10.564Z,13.30
2023-03-11T06:45:41.472Z,13.20
2023-03-11T06:48:10.429Z,13.80
2023-03-11T06:50:39.957Z,14.10
2023-03-11T06:53:08.232Z,13.40
2023-03-11T06:55:37.038Z,13.70
2023-03-11T06:58:05.390Z,14.00
2023-03-11T07:00:33.844Z,14.90
2023-03-11T07:03:04.515Z,14.60
2023-03-11T07:05:33.506Z,13.70
2023-03-11T07:08:05.570Z,14.20
2023-03-11T07:10:40.885Z,15.20
2023-03-11T07:13:09.835Z,13.30
2023-03-11T07:15:38.626Z,17.00
2023-03-11T07:18:07.540Z,16.20
2023-03-11T07:20:36.084Z,14.00
2023-03-11T07:23:04.238Z,13.70
2023-03-11T07:25:32.911Z,13.90
2023-03-11T07:28:01.551Z,13.90
2023-03-11T07:30:29.962Z,12.90
2023-03-11T07:32:58.625Z,13.10
2023-03-11T07:35:27.106Z,12.50
2023-03-11T07:38:01.294Z,12.50
2023-03-11T07:40:30.100Z,12.30
2023-03-11T07:42:58.416Z,12.60
2023-03-11T07:45:26.967Z,13.10
2023-03-11T07:47:55.716Z,12.30
2023-03-11T07:50:26.136Z,12.80
2023-03-11T07:52:55.007Z,12.20
2023-03-11T07:55:27.700Z,12.90
2023-03-11T07:57:56.188Z,13.00
2023-03-11T08:00:24.643Z,13.90
2023-03-11T08:02:53.134Z,13.20
2023-03-11T08:05:21.620Z,12.80
2023-03-11T08:07:53.620Z,12.30
2023-03-11T08:10:22.306Z,14.00
2023-03-11T08:12:51.839Z,14.10
2023-03-11T08:15:20.135Z,14.00
2023-03-11T08:17:49.704Z,14.40
2023-03-11T08:20:18.059Z,13.80
2023-03-11T08:22:58.153Z,13.30
2023-03-11T08:25:26.811Z,15.10
2023-03-11T08:27:55.628Z,14.60
2023-03-11T08:30:28.845Z,14.30
2023-03-11T08:33:05.163Z,17.60
2023-03-11T08:35:34.014Z,17.80
2023-03-11T08:38:03.425Z,15.70
2023-03-11T08:40:31.843Z,15.50
2023-03-11T08:43:00.319Z,15.70
2023-03-11T08:45:28.531Z,20.60
2023-03-11T08:47:56.772Z,20.40
2023-03-11T08:50:25.474Z,20.40
2023-03-11T08:52:56.056Z,18.50
2023-03-11T08:55:27.930Z,18.70
2023-03-11T08:57:56.511Z,18.10
2023-03-11T09:00:26.354Z,18.80
2023-03-11T09:02:54.776Z,18.00
2023-03-11T09:05:23.029Z,17.20
2023-03-11T09:07:51.663Z,19.00
2023-03-11T09:10:20.175Z,18.70
2023-03-11T09:12:48.808Z,17.20
2023-03-11T09:15:22.816Z,18.30
2023-03-11T09:17:51.231Z,17.20
2023-03-11T09:20:22.488Z,17.40
2023-03-11T09:22:51.772Z,19.70
2023-03-11T09:25:20.108Z,21.70
2023-03-11T09:27:49.971Z,20.40
2023-03-11T09:30:18.927Z,20.00
2023-03-11T09:32:48.195Z,20.70
2023-03-11T09:35:17.187Z,23.90
2023-03-11T09:37:47.264Z,24.10
2023-03-11T09:40:17.579Z,22.50
2023-03-11T09:42:48.008Z,22.60
2023-03-11T09:45:21.615Z,19.80
2023-03-11T09:48:07.333Z,21.80
2023-03-11T09:50:38.615Z,22.10
2023-03-11T09:53:28.187Z,24.70
2023-03-11T09:55:58.366Z,22.90
2023-03-11T09:58:43.253Z,25.10
2023-03-11T10:01:31.525Z,22.40
2023-03-11T10:04:41.784Z,21.70
2023-03-11T10:07:12.922Z,21.90
2023-03-11T10:09:48.640Z,24.20
2023-03-11T10:12:35.803Z,21.90
2023-03-11T10:15:25.900Z,21.20
2023-03-11T10:18:23.048Z,21.80
2023-03-11T10:21:04.763Z,23.20
2023-03-11T10:23:54.813Z,21.40
2023-03-11T10:26:37.161Z,22.40
2023-03-11T10:29:20.019Z,22.00
2023-03-11T10:32:10.279Z,23.60
2023-03-11T10:35:00.200Z,24.30
2023-03-11T10:40:30.715Z,22.20
2023-03-11T10:43:02.123Z,23.00
2023-03-11T10:45:37.106Z,22.70
2023-03-11T10:48:12.979Z,22.30
2023-03-11T10:51:02.019Z,27.00
2023-03-11T10:53:31.023Z,26.00
2023-03-11T10:55:59.711Z,25.90
2023-03-11T10:58:29.601Z,24.00
2023-03-11T11:01:12.071Z,23.00
2023-03-11T11:03:49.398Z,23.90
2023-03-11T11:06:30.696Z,23.40
2023-03-11T11:09:16.219Z,23.50
2023-03-11T11:12:13.668Z,21.60
2023-03-11T11:14:50.454Z,21.90
2023-03-11T11:17:27.775Z,22.30
2023-03-11T11:19:58.136Z,21.10
2023-03-11T11:22:27.053Z,21.40
2023-03-11T11:24:55.359Z,21.50
2023-03-11T11:27:25.845Z,20.70
2023-03-11T11:30:09.375Z,20.70
2023-03-11T11:32:39.113Z,20.40
2023-03-11T11:35:11.515Z,21.70
2023-03-11T11:37:42.184Z,20.50
2023-03-11T11:40:16.758Z,20.10
2023-03-11T11:42:47.836Z,19.30
2023-03-11T11:45:30.467Z,25.50
2023-03-11T11:48:00.877Z,20.50
2023-03-11T11:50:30.157Z,20.40
2023-03-11T11:53:08.326Z,18.70
2023-03-11T11:55:46.648Z,18.90
2023-03-11T11:58:15.014Z,18.30
2023-03-11T12:00:57.130Z,19.20
2023-03-11T12:03:51.956Z,19.10
2023-03-11T12:06:26.305Z,19.40
2023-03-11T12:09:06.482Z,19.10
2023-03-11T12:11:44.549Z,17.90
2023-03-11T12:14:15.623Z,18.00
2023-03-11T12:16:47.787Z,18.60
2023-03-11T12:19:41.939Z,20.00
2023-03-11T12:22:28.873Z,21.30
2023-03-11T12:25:08.742Z,19.30
2023-03-11T12:27:46.452Z,18.70
2023-03-11T12:30:27.423Z,18.20
2023-03-11T12:33:17.646Z,16.80
2023-03-11T12:35:56.053Z,19.00
2023-03-11T12:38:27.531Z,18.00
2023-03-11T12:41:15.178Z,19.70
2023-03-11T12:43:46.282Z,17.40
2023-03-11T12:46:17.721Z,17.40
2023-03-11T12:48:50.430Z,15.90
2023-03-11T12:51:27.819Z,16.90
2023-03-11T12:53:56.441Z,17.20
2023-03-11T12:56:35.189Z,17.10
2023-03-11T12:59:33.054Z,19.60
2023-03-11T13:02:25.857Z,21.40
2023-03-11T13:05:07.914Z,29.00
2023-03-11T13:07:52.298Z,30.10
2023-03-11T13:10:40.498Z,27.80
2023-03-11T13:13:32.531Z,23.00
2023-03-11T13:16:14.354Z,17.30
2023-03-11T13:18:47.850Z,19.50
2023-03-11T13:21:31.913Z,17.60
2023-03-11T13:24:19.257Z,15.90
2023-03-11T13:27:04.868Z,12.90
2023-03-11T13:29:53.189Z,13.20
2023-03-11T13:32:52.799Z,14.70
2023-03-11T13:36:07.349Z,14.20
2023-03-11T13:39:11.516Z,12.70
2023-03-11T13:41:42.145Z,14.20
2023-03-11T13:44:19.477Z,12.70
2023-03-11T13:47:01.769Z,13.30
2023-03-11T13:49:38.042Z,12.60
2023-03-11T13:52:19.058Z,12.40
2023-03-11T13:54:59.781Z,12.90
2023-03-11T13:57:31.845Z,12.60
2023-03-11T14:00:17.858Z,12.70
2023-03-11T14:02:55.412Z,12.80
2023-03-11T14:05:45.504Z,13.00
2023-03-11T14:08:22.013Z,12.80
2023-03-11T14:10:56.922Z,14.60
2023-03-11T14:13:28.896Z,12.20
2023-03-11T14:16:17.579Z,12.30
2023-03-11T14:18:49.672Z,12.10
2023-03-11T14:21:22.247Z,11.80
2023-03-11T14:23:51.789Z,12.90
2023-03-11T14:26:27.993Z,12.70
2023-03-11T14:28:59.048Z,11.80
2023-03-11T14:31:32.542Z,13.10
2023-03-11T14:34:11.794Z,12.50
2023-03-11T14:36:44.301Z,12.10
2023-03-11T14:39:34.649Z,11.70
2023-03-11T14:42:07.758Z,12.20
2023-03-11T14:44:39.925Z,12.40
2023-03-11T14:47:27.197Z,32.10
2023-03-11T14:49:57.295Z,27.60
2023-03-11T14:52:56.012Z,13.60
2023-03-11T14:55:36.452Z,12.80
2023-03-11T14:58:35.853Z,13.20
2023-03-11T15:01:05.794Z,13.00
2023-03-11T15:03:35.902Z,13.80
2023-03-11T15:06:20.802Z,13.50
2023-03-11T15:08:55.967Z,14.40
2023-03-11T15:11:25.448Z,13.90
2023-03-11T15:13:54.587Z,14.20
2023-03-11T15:16:33.927Z,14.70
2023-03-11T15:19:29.250Z,14.70
2023-03-11T15:22:22.061Z,15.00
2023-03-11T15:24:59.156Z,15.20
2023-03-11T15:27:32.211Z,14.50
2023-03-11T15:30:26.655Z,15.20
2023-03-11T15:32:55.229Z,14.70
2023-03-11T15:35:29.921Z,13.30
2023-03-11T15:38:25.325Z,13.40
2023-03-11T15:41:01.131Z,12.30
2023-03-11T15:43:29.613Z,12.40
2023-03-11T15:45:58.792Z,13.10
2023-03-11T15:48:29.195Z,15.00
2023-03-11T15:51:00.789Z,15.70
2023-03-11T15:53:30.387Z,17.00
2023-03-11T15:56:07.902Z,17.40
2023-03-11T15:58:39.653Z,20.00
2023-03-11T16:01:08.367Z,19.40
2023-03-11T16:03:39.232Z,21.40
2023-03-11T16:06:07.934Z,24.00
2023-03-11T16:08:36.895Z,26.00
2023-03-11T16:11:05.841Z,30.30
2023-03-11T16:13:36.720Z,29.70
2023-03-11T16:16:05.376Z,25.10
2023-03-11T16:18:35.836Z,18.30
2023-03-11T16:21:11.662Z,16.80
2023-03-11T16:23:50.984Z,16.00
2023-03-11T16:26:20.895Z,15.30
2023-03-11T16:28:49.422Z,15.10
2023-03-11T16:31:18.724Z,34.70
2023-03-11T16:33:48.697Z,35.90
2023-03-11T16:36:17.469Z,23.30
2023-03-11T16:38:49.764Z,21.40
2023-03-11T16:41:18.595Z,25.90
2023-03-11T16:43:46.776Z,30.20
2023-03-11T16:46:14.932Z,30.50
2023-03-11T16:48:43.734Z,24.20
2023-03-11T16:51:15.796Z,21.60
2023-03-11T16:53:44.514Z,19.10
2023-03-11T16:56:15.709Z,17.20
2023-03-11T16:58:48.378Z,16.60
2023-03-11T17:01:21.644Z,16.50
2023-03-11T17:03:50.909Z,17.30
2023-03-11T17:06:19.639Z,23.30
2023-03-11T17:08:51.752Z,21.20
2023-03-11T17:11:22.081Z,21.90
2023-03-11T17:13:55.407Z,18.60
2023-03-11T17:16:27.033Z,19.70
2023-03-11T17:18:55.446Z,20.80
2023-03-11T17:21:23.598Z,20.20
2023-03-11T17:23:54.269Z,45.70
2023-03-11T17:26:26.587Z,29.30
2023-03-11T17:28:54.691Z,20.40
2023-03-11T17:31:23.017Z,17.20
2023-03-11T17:33:51.575Z,15.20
2023-03-11T17:36:19.762Z,16.70
2023-03-11T17:38:54.290Z,16.80
2023-03-11T17:41:23.164Z,16.90
2023-03-11T17:43:51.699Z,17.70
2023-03-11T17:46:20.514Z,16.80
2023-03-11T17:48:49.090Z,15.20
2023-03-11T17:51:22.374Z,16.20
2023-03-11T17:53:50.792Z,17.30
2023-03-11T17:56:21.697Z,17.00
2023-03-11T17:58:50.202Z,19.50
2023-03-11T18:01:20.991Z,20.90
2023-03-11T18:03:49.880Z,20.90
2023-03-11T18:06:18.839Z,23.60
2023-03-11T18:08:48.074Z,25.50
2023-03-11T18:11:20.096Z,27.10
2023-03-11T18:13:48.632Z,25.40
2023-03-11T18:16:24.783Z,24.90
2023-03-11T18:21:52.567Z,22.80
2023-03-11T18:24:23.200Z,22.00
2023-03-11T18:26:51.825Z,20.70
2023-03-11T18:29:20.025Z,20.30
2023-03-11T18:31:48.463Z,20.50
2023-03-11T18:34:17.282Z,19.20
2023-03-11T18:36:45.508Z,18.40
2023-03-11T18:40:34.593Z,17.10
2023-03-11T18:43:03.625Z,18.20
2023-03-11T18:45:33.392Z,16.80
2023-03-11T18:48:01.541Z,16.40
2023-03-11T18:50:31.319Z,15.50
2023-03-11T18:53:00.337Z,16.00
2023-03-11T18:55:28.788Z,18.60
2023-03-11T18:57:57.172Z,16.80
2023-03-11T19:00:25.531Z,17.10
2023-03-11T19:02:54.225Z,17.10
2023-03-11T19:05:22.990Z,17.00
2023-03-11T19:07:51.567Z,16.50
2023-03-11T19:10:22.512Z,15.90
2023-03-11T19:12:51.791Z,15.90
2023-03-11T19:15:21.244Z,14.20
2023-03-11T19:18:04.328Z,15.40
2023-03-11T19:20:35.246Z,16.50
2023-03-11T19:23:03.972Z,15.60
2023-03-11T19:25:33.250Z,14.90
2023-03-11T19:28:01.620Z,14.50
2023-03-11T19:30:30.107Z,14.60
2023-03-11T19:32:59.262Z,14.80
2023-03-11T19:35:27.545Z,14.20
2023-03-11T19:37:57.463Z,14.10
2023-03-11T19:40:29.816Z,13.90
2023-03-11T19:43:01.281Z,13.80
2023-03-11T19:45:31.193Z,14.10
2023-03-11T19:48:00.936Z,13.10
2023-03-11T19:50:34.388Z,14.90
2023-03-11T19:53:03.292Z,16.70
2023-03-11T19:55:31.711Z,15.40
2023-03-11T19:58:00.960Z,13.80
2023-03-11T20:00:30.743Z,13.40
2023-03-11T20:03:02.334Z,12.50
2023-03-11T20:05:31.429Z,13.00
2023-03-11T20:07:59.709Z,12.30
2023-03-11T20:10:27.902Z,11.20
2023-03-11T20:13:02.420Z,10.70
2023-03-11T20:15:31.312Z,10.90
2023-03-11T20:18:05.682Z,10.20
2023-03-11T20:20:34.518Z,10.20
2023-03-11T20:23:03.829Z,10.60
2023-03-11T20:25:40.482Z,10.40
2023-03-11T20:28:09.042Z,11.60
2023-03-11T20:30:38.118Z,10.50
2023-03-11T20:33:07.400Z,10.60
2023-03-11T20:35:36.006Z,10.40
2023-03-11T20:38:04.456Z,11.00
2023-03-11T20:40:34.211Z,9.80
2023-03-11T20:43:02.560Z,11.70
2023-03-11T20:45:32.538Z,11.10
2023-03-11T20:48:02.331Z,10.50
2023-03-11T20:50:30.809Z,9.60
2023-03-11T20:52:59.184Z,9.60
2023-03-11T20:55:27.706Z,9.30
2023-03-11T20:57:56.315Z,8.10
2023-03-11T21:00:29.049Z,6.60
2023-03-11T21:02:57.395Z,6.80
2023-03-11T21:05:25.716Z,6.30
2023-03-11T21:07:54.654Z,6.70
2023-03-11T21:10:22.888Z,6.40
2023-03-11T21:12:52.779Z,6.70
2023-03-11T21:15:25.909Z,6.00
2023-03-11T21:17:55.642Z,6.00
2023-03-11T21:20:23.919Z,5.80
2023-03-11T21:22:53.395Z,5.70
2023-03-11T21:25:21.952Z,5.80
2023-03-11T21:27:50.076Z,5.20
2023-03-11T21:30:22.955Z,5.30
2023-03-11T21:32:51.732Z,5.10
2023-03-11T21:35:19.957Z,6.00
2023-03-11T21:37:48.435Z,5.00
2023-03-11T21:40:16.980Z,4.70
2023-03-11T21:42:45.116Z,4.10
2023-03-11T21:45:13.623Z,3.70
2023-03-11T21:47:42.026Z,3.00
2023-03-11T21:50:11.822Z,2.60
2023-03-11T21:52:40.631Z,2.40
2023-03-11T21:55:10.773Z,3.00
2023-03-11T21:57:39.132Z,2.00
2023-03-11T22:00:10.098Z,2.60
2023-03-11T22:02:38.712Z,2.90
2023-03-11T22:05:07.651Z,2.80
2023-03-11T22:07:35.881Z,3.00
2023-03-11T22:10:05.116Z,3.00
2023-03-11T22:12:35.644Z,2.90
2023-03-11T22:15:04.497Z,3.10
2023-03-11T22:17:33.729Z,3.10
2023-03-11T22:20:02.012Z,3.50
2023-03-11T22:22:31.783Z,3.50
2023-03-11T22:25:02.399Z,3.10
2023-03-11T22:27:31.516Z,3.00
2023-03-11T22:29:59.794Z,3.30
2023-03-11T22:32:33.306Z,3.50
2023-03-11T22:35:01.779Z,3.60
2023-03-11T22:37:30.464Z,3.80
2023-03-11T22:39:59.253Z,4.00
2023-03-11T22:42:27.638Z,3.90
2023-03-11T22:44:56.718Z,4.70
2023-03-11T22:47:24.915Z,4.30
2023-03-11T22:49:53.004Z,4.30
2023-03-11T22:52:21.105Z,3.90
2023-03-11T22:54:49.457Z,4.30
2023-03-11T22:57:21.245Z,4.10
2023-03-11T22:59:49.837Z,4.30
2023-03-11T23:02:18.340Z,4.20
2023-03-11T23:04:49.086Z,4.00
2023-03-11T23:07:17.625Z,4.60
2023-03-11T23:09:47.059Z,3.80
2023-03-11T23:12:16.858Z,3.70
2023-03-11T23:14:47.119Z,3.70
2023-03-11T23:17:18.974Z,3.80
2023-03-11T23:19:47.632Z,3.80
2023-03-11T23:22:15.941Z,4.40
